sensor_id;sensor_type;location;lat;lon;timestamp;pressure;altitude;pressure_sealevel;temperature;humidity
12215;BME280;6170;42.206;24.142;2022-12-15T00:00:09;98214.59;;;2.92;93.65
12215;BME280;6170;42.206;24.142;2022-12-15T00:02:55;98213.56;;;3.09;93.35
12215;BME280;6170;42.206;24.142;2022-12-15T00:05:39;98202.81;;;3.10;92.26
12215;BME280;6170;42.206;24.142;2022-12-15T00:08:23;98219.84;;;3.16;92.50
12215;BME280;6170;42.206;24.142;2022-12-15T00:11:07;98210.81;;;3.41;91.74
12215;BME280;6170;42.206;24.142;2022-12-15T00:13:52;98176.09;;;3.36;90.81
12215;BME280;6170;42.206;24.142;2022-12-15T00:16:36;98197.56;;;3.41;90.88
12215;BME280;6170;42.206;24.142;2022-12-15T00:19:21;98231.56;;;3.69;90.47
12215;BME280;6170;42.206;24.142;2022-12-15T00:22:06;98205.38;;;3.35;91.12
12215;BME280;6170;42.206;24.142;2022-12-15T00:24:50;98249.78;;;3.72;91.03
12215;BME280;6170;42.206;24.142;2022-12-15T00:27:34;98202.06;;;3.33;91.18
12215;BME280;6170;42.206;24.142;2022-12-15T00:30:18;98240.84;;;3.65;91.00
12215;BME280;6170;42.206;24.142;2022-12-15T00:33:07;98160.13;;;3.05;91.54
12215;BME280;6170;42.206;24.142;2022-12-15T00:35:52;98171.50;;;3.22;91.64
12215;BME280;6170;42.206;24.142;2022-12-15T00:38:36;98165.75;;;3.19;91.59
12215;BME280;6170;42.206;24.142;2022-12-15T00:41:07;98189.78;;;3.01;92.32
12215;BME280;6170;42.206;24.142;2022-12-15T00:43:35;98231.31;;;3.47;93.27
12215;BME280;6170;42.206;24.142;2022-12-15T00:46:02;98189.72;;;3.17;93.01
12215;BME280;6170;42.206;24.142;2022-12-15T00:48:47;98176.63;;;3.32;92.82
12215;BME280;6170;42.206;24.142;2022-12-15T00:51:16;98228.59;;;3.72;92.11
12215;BME280;6170;42.206;24.142;2022-12-15T00:53:42;98238.84;;;3.20;93.82
12215;BME280;6170;42.206;24.142;2022-12-15T00:56:26;98216.94;;;3.42;92.59
12215;BME280;6170;42.206;24.142;2022-12-15T00:59:13;98215.59;;;3.54;92.84
12215;BME280;6170;42.206;24.142;2022-12-15T01:01:57;98216.59;;;3.53;92.01
12215;BME280;6170;42.206;24.142;2022-12-15T01:04:41;98154.41;;;3.33;91.82
12215;BME280;6170;42.206;24.142;2022-12-15T01:07:27;98157.81;;;3.10;92.42
12215;BME280;6170;42.206;24.142;2022-12-15T01:10:12;98197.44;;;3.35;91.97
12215;BME280;6170;42.206;24.142;2022-12-15T01:12:56;98211.25;;;3.14;93.09
12215;BME280;6170;42.206;24.142;2022-12-15T01:15:40;98243.50;;;3.17;93.93
12215;BME280;6170;42.206;24.142;2022-12-15T01:18:24;98200.69;;;2.98;94.37
12215;BME280;6170;42.206;24.142;2022-12-15T01:21:10;98237.47;;;3.40;93.55
12215;BME280;6170;42.206;24.142;2022-12-15T01:23:40;98192.84;;;3.21;93.67
12215;BME280;6170;42.206;24.142;2022-12-15T01:26:07;98183.94;;;3.13;92.45
12215;BME280;6170;42.206;24.142;2022-12-15T01:28:34;98195.38;;;3.14;92.42
12215;BME280;6170;42.206;24.142;2022-12-15T01:31:08;98209.13;;;2.93;93.11
12215;BME280;6170;42.206;24.142;2022-12-15T01:33:36;98207.66;;;2.83;92.96
12215;BME280;6170;42.206;24.142;2022-12-15T01:36:03;98229.47;;;2.93;92.94
12215;BME280;6170;42.206;24.142;2022-12-15T01:38:30;98228.81;;;2.91;92.62
12215;BME280;6170;42.206;24.142;2022-12-15T01:41:00;98275.75;;;2.97;92.96
12215;BME280;6170;42.206;24.142;2022-12-15T01:43:29;98258.09;;;2.73;93.63
12215;BME280;6170;42.206;24.142;2022-12-15T01:46:00;98245.53;;;2.67;94.05
12215;BME280;6170;42.206;24.142;2022-12-15T01:48:33;98267.50;;;2.67;94.00
12215;BME280;6170;42.206;24.142;2022-12-15T01:51:09;98285.03;;;2.85;93.84
12215;BME280;6170;42.206;24.142;2022-12-15T01:53:39;98284.53;;;2.97;94.12
12215;BME280;6170;42.206;24.142;2022-12-15T01:56:09;98267.38;;;2.69;94.01
12215;BME280;6170;42.206;24.142;2022-12-15T01:58:39;98270.84;;;2.69;93.27
12215;BME280;6170;42.206;24.142;2022-12-15T02:01:08;98253.44;;;2.75;93.14
12215;BME280;6170;42.206;24.142;2022-12-15T02:03:35;98239.72;;;2.88;92.55
12215;BME280;6170;42.206;24.142;2022-12-15T02:06:04;98241.03;;;3.00;92.55
12215;BME280;6170;42.206;24.142;2022-12-15T02:08:32;98243.03;;;2.98;92.40
12215;BME280;6170;42.206;24.142;2022-12-15T02:14:00;98241.03;;;3.08;92.30
12215;BME280;6170;42.206;24.142;2022-12-15T02:16:37;98276.69;;;3.44;92.31
12215;BME280;6170;42.206;24.142;2022-12-15T02:19:24;98242.84;;;3.07;92.85
12215;BME280;6170;42.206;24.142;2022-12-15T02:22:09;98249.94;;;3.15;92.81
12215;BME280;6170;42.206;24.142;2022-12-15T02:25:05;98280.63;;;3.56;92.71
12215;BME280;6170;42.206;24.142;2022-12-15T02:27:48;98270.56;;;3.44;92.33
12215;BME280;6170;42.206;24.142;2022-12-15T02:30:24;98301.00;;;3.56;92.26
12215;BME280;6170;42.206;24.142;2022-12-15T02:33:01;98258.97;;;3.53;92.09
12215;BME280;6170;42.206;24.142;2022-12-15T02:35:39;98278.09;;;3.71;92.44
12215;BME280;6170;42.206;24.142;2022-12-15T02:38:07;98234.41;;;3.59;91.96
12215;BME280;6170;42.206;24.142;2022-12-15T02:40:34;98237.91;;;3.59;91.25
12215;BME280;6170;42.206;24.142;2022-12-15T02:43:03;98276.06;;;3.89;90.71
12215;BME280;6170;42.206;24.142;2022-12-15T02:45:36;98272.38;;;3.90;90.78
12215;BME280;6170;42.206;24.142;2022-12-15T02:48:18;98223.03;;;3.50;91.01
12215;BME280;6170;42.206;24.142;2022-12-15T02:50:55;98265.59;;;3.88;91.24
12215;BME280;6170;42.206;24.142;2022-12-15T02:53:40;98221.75;;;3.77;90.59
12215;BME280;6170;42.206;24.142;2022-12-15T02:56:16;98215.16;;;3.73;90.25
12215;BME280;6170;42.206;24.142;2022-12-15T02:58:48;98256.56;;;4.05;90.20
12215;BME280;6170;42.206;24.142;2022-12-15T03:01:24;98248.25;;;4.08;90.15
12215;BME280;6170;42.206;24.142;2022-12-15T03:03:54;98218.13;;;3.78;90.02
12215;BME280;6170;42.206;24.142;2022-12-15T03:06:23;98223.28;;;3.72;90.45
12215;BME280;6170;42.206;24.142;2022-12-15T03:08:50;98221.50;;;3.95;90.33
12215;BME280;6170;42.206;24.142;2022-12-15T03:11:17;98214.28;;;3.81;90.95
12215;BME280;6170;42.206;24.142;2022-12-15T03:13:44;98206.47;;;3.87;90.77
12215;BME280;6170;42.206;24.142;2022-12-15T03:16:11;98219.06;;;3.85;90.98
12215;BME280;6170;42.206;24.142;2022-12-15T03:18:39;98214.22;;;3.97;90.62
12215;BME280;6170;42.206;24.142;2022-12-15T03:21:06;98262.03;;;4.34;90.61
12215;BME280;6170;42.206;24.142;2022-12-15T03:23:33;98210.53;;;4.06;90.66
12215;BME280;6170;42.206;24.142;2022-12-15T03:26:00;98219.34;;;4.21;90.31
12215;BME280;6170;42.206;24.142;2022-12-15T03:28:27;98222.31;;;4.26;90.39
12215;BME280;6170;42.206;24.142;2022-12-15T03:30:53;98216.59;;;4.37;90.50
12215;BME280;6170;42.206;24.142;2022-12-15T03:33:21;98212.13;;;4.38;90.10
12215;BME280;6170;42.206;24.142;2022-12-15T03:35:49;98241.47;;;4.59;90.48
12215;BME280;6170;42.206;24.142;2022-12-15T03:38:16;98205.94;;;4.45;90.11
12215;BME280;6170;42.206;24.142;2022-12-15T03:40:43;98248.13;;;4.78;89.77
12215;BME280;6170;42.206;24.142;2022-12-15T03:43:10;98197.63;;;4.48;89.48
12215;BME280;6170;42.206;24.142;2022-12-15T03:45:37;98205.41;;;4.50;89.61
12215;BME280;6170;42.206;24.142;2022-12-15T03:48:04;98196.69;;;4.41;89.22
12215;BME280;6170;42.206;24.142;2022-12-15T03:50:31;98222.53;;;4.62;89.45
12215;BME280;6170;42.206;24.142;2022-12-15T03:53:00;98182.06;;;4.23;89.28
12215;BME280;6170;42.206;24.142;2022-12-15T03:55:28;98204.56;;;4.49;88.81
12215;BME280;6170;42.206;24.142;2022-12-15T03:57:55;98198.38;;;4.34;89.34
12215;BME280;6170;42.206;24.142;2022-12-15T04:00:23;98192.06;;;4.35;89.69
12215;BME280;6170;42.206;24.142;2022-12-15T04:02:50;98226.03;;;4.40;90.59
12215;BME280;6170;42.206;24.142;2022-12-15T04:05:19;98192.91;;;4.13;90.62
12215;BME280;6170;42.206;24.142;2022-12-15T04:07:46;98176.25;;;3.74;91.94
12215;BME280;6170;42.206;24.142;2022-12-15T04:10:15;98218.63;;;4.04;92.69
12215;BME280;6170;42.206;24.142;2022-12-15T04:12:42;98179.50;;;3.84;93.02
12215;BME280;6170;42.206;24.142;2022-12-15T04:15:10;98174.03;;;4.08;92.28
12215;BME280;6170;42.206;24.142;2022-12-15T04:17:37;98173.69;;;3.88;93.07
12215;BME280;6170;42.206;24.142;2022-12-15T04:20:06;98159.88;;;3.70;93.81
12215;BME280;6170;42.206;24.142;2022-12-15T04:22:36;98194.09;;;3.80;93.87
12215;BME280;6170;42.206;24.142;2022-12-15T04:25:04;98192.34;;;3.95;93.68
12215;BME280;6170;42.206;24.142;2022-12-15T04:27:50;98207.16;;;3.81;94.26
12215;BME280;6170;42.206;24.142;2022-12-15T04:30:34;98200.28;;;3.95;94.28
12215;BME280;6170;42.206;24.142;2022-12-15T04:33:20;98200.91;;;3.74;94.53
12215;BME280;6170;42.206;24.142;2022-12-15T04:36:05;98212.66;;;3.80;94.75
12215;BME280;6170;42.206;24.142;2022-12-15T04:38:50;98259.59;;;4.02;94.82
12215;BME280;6170;42.206;24.142;2022-12-15T04:41:34;98184.34;;;3.72;95.60
12215;BME280;6170;42.206;24.142;2022-12-15T04:44:20;98210.22;;;3.70;95.04
12215;BME280;6170;42.206;24.142;2022-12-15T04:47:04;98191.56;;;3.86;94.62
12215;BME280;6170;42.206;24.142;2022-12-15T04:49:48;98209.53;;;3.68;95.22
12215;BME280;6170;42.206;24.142;2022-12-15T04:52:32;98199.78;;;3.69;95.75
12215;BME280;6170;42.206;24.142;2022-12-15T04:55:17;98185.81;;;3.83;95.43
12215;BME280;6170;42.206;24.142;2022-12-15T04:58:05;98208.59;;;4.23;95.19
12215;BME280;6170;42.206;24.142;2022-12-15T05:00:52;98192.03;;;3.98;94.14
12215;BME280;6170;42.206;24.142;2022-12-15T05:03:37;98244.50;;;4.33;93.45
12215;BME280;6170;42.206;24.142;2022-12-15T05:06:21;98202.88;;;3.80;92.76
12215;BME280;6170;42.206;24.142;2022-12-15T05:09:05;98213.91;;;3.92;93.03
12215;BME280;6170;42.206;24.142;2022-12-15T05:11:50;98254.34;;;4.17;93.01
12215;BME280;6170;42.206;24.142;2022-12-15T05:14:34;98226.59;;;3.74;93.28
12215;BME280;6170;42.206;24.142;2022-12-15T05:17:19;98237.84;;;3.76;94.22
12215;BME280;6170;42.206;24.142;2022-12-15T05:20:04;98257.88;;;3.78;93.65
12215;BME280;6170;42.206;24.142;2022-12-15T05:22:52;98270.41;;;3.92;93.85
12215;BME280;6170;42.206;24.142;2022-12-15T05:25:36;98235.47;;;3.89;92.97
12215;BME280;6170;42.206;24.142;2022-12-15T05:28:20;98290.00;;;4.14;93.01
12215;BME280;6170;42.206;24.142;2022-12-15T05:31:05;98261.84;;;3.74;93.27
12215;BME280;6170;42.206;24.142;2022-12-15T05:33:51;98256.16;;;3.93;92.99
12215;BME280;6170;42.206;24.142;2022-12-15T05:36:18;98302.44;;;4.14;92.57
12215;BME280;6170;42.206;24.142;2022-12-15T05:38:47;98268.69;;;3.60;93.77
12215;BME280;6170;42.206;24.142;2022-12-15T05:41:14;98270.63;;;3.75;93.56
12215;BME280;6170;42.206;24.142;2022-12-15T05:43:40;98284.53;;;3.77;93.99
12215;BME280;6170;42.206;24.142;2022-12-15T05:46:07;98276.28;;;3.72;93.33
12215;BME280;6170;42.206;24.142;2022-12-15T05:48:34;98304.38;;;3.81;93.73
12215;BME280;6170;42.206;24.142;2022-12-15T05:51:04;98296.41;;;3.89;93.96
12215;BME280;6170;42.206;24.142;2022-12-15T05:53:31;98328.63;;;4.08;92.94
12215;BME280;6170;42.206;24.142;2022-12-15T05:56:01;98284.63;;;3.91;93.47
12215;BME280;6170;42.206;24.142;2022-12-15T05:58:28;98345.00;;;4.12;93.01
12215;BME280;6170;42.206;24.142;2022-12-15T06:01:02;98341.84;;;4.17;92.98
12215;BME280;6170;42.206;24.142;2022-12-15T06:03:29;98292.69;;;4.06;92.52
12215;BME280;6170;42.206;24.142;2022-12-15T06:05:56;98309.59;;;4.05;92.07
12215;BME280;6170;42.206;24.142;2022-12-15T06:08:26;98303.84;;;3.93;92.10
12215;BME280;6170;42.206;24.142;2022-12-15T06:10:53;98308.59;;;4.06;91.75
12215;BME280;6170;42.206;24.142;2022-12-15T06:13:20;98290.41;;;3.95;92.21
12215;BME280;6170;42.206;24.142;2022-12-15T06:15:54;98350.91;;;4.30;91.58
12215;BME280;6170;42.206;24.142;2022-12-15T06:18:22;98313.06;;;4.05;92.16
12215;BME280;6170;42.206;24.142;2022-12-15T06:20:49;98321.81;;;4.14;91.46
12215;BME280;6170;42.206;24.142;2022-12-15T06:23:22;98352.19;;;4.34;91.60
12215;BME280;6170;42.206;24.142;2022-12-15T06:25:50;98311.00;;;4.24;91.60
12215;BME280;6170;42.206;24.142;2022-12-15T06:28:17;98361.66;;;4.68;91.33
12215;BME280;6170;42.206;24.142;2022-12-15T06:30:49;98310.00;;;4.56;90.48
12215;BME280;6170;42.206;24.142;2022-12-15T06:33:15;98305.34;;;4.80;89.62
12215;BME280;6170;42.206;24.142;2022-12-15T06:35:42;98302.31;;;4.83;89.37
12215;BME280;6170;42.206;24.142;2022-12-15T06:38:09;98356.06;;;5.08;89.54
12215;BME280;6170;42.206;24.142;2022-12-15T06:40:36;98299.25;;;4.94;89.47
12215;BME280;6170;42.206;24.142;2022-12-15T06:43:05;98280.44;;;5.19;88.45
12215;BME280;6170;42.206;24.142;2022-12-15T06:45:31;98321.19;;;5.49;88.13
12215;BME280;6170;42.206;24.142;2022-12-15T06:47:58;98288.28;;;5.35;87.56
12215;BME280;6170;42.206;24.142;2022-12-15T06:50:26;98292.13;;;5.47;88.37
12215;BME280;6170;42.206;24.142;2022-12-15T06:52:53;98289.81;;;5.29;87.77
12215;BME280;6170;42.206;24.142;2022-12-15T06:55:19;98297.88;;;5.36;87.77
12215;BME280;6170;42.206;24.142;2022-12-15T06:57:46;98303.28;;;5.42;87.04
12215;BME280;6170;42.206;24.142;2022-12-15T07:00:15;98295.22;;;5.36;87.38
12215;BME280;6170;42.206;24.142;2022-12-15T07:02:42;98301.84;;;5.99;86.22
12215;BME280;6170;42.206;24.142;2022-12-15T07:05:09;98335.19;;;6.81;82.73
12215;BME280;6170;42.206;24.142;2022-12-15T07:07:36;98312.25;;;7.57;79.40
12215;BME280;6170;42.206;24.142;2022-12-15T07:10:03;98335.44;;;8.25;77.09
12215;BME280;6170;42.206;24.142;2022-12-15T07:12:30;98323.06;;;7.49;77.91
12215;BME280;6170;42.206;24.142;2022-12-15T07:14:57;98340.66;;;6.94;80.13
12215;BME280;6170;42.206;24.142;2022-12-15T07:17:25;98369.41;;;7.05;82.13
12215;BME280;6170;42.206;24.142;2022-12-15T07:19:52;98332.06;;;7.20;80.68
12215;BME280;6170;42.206;24.142;2022-12-15T07:22:19;98344.44;;;7.55;80.94
12215;BME280;6170;42.206;24.142;2022-12-15T07:24:47;98325.38;;;7.86;78.74
12215;BME280;6170;42.206;24.142;2022-12-15T07:27:13;98365.06;;;8.02;79.29
12215;BME280;6170;42.206;24.142;2022-12-15T07:29:40;98329.97;;;8.05;79.87
12215;BME280;6170;42.206;24.142;2022-12-15T07:32:07;98370.97;;;8.26;79.70
12215;BME280;6170;42.206;24.142;2022-12-15T07:34:35;98334.50;;;7.71;80.13
12215;BME280;6170;42.206;24.142;2022-12-15T07:37:02;98335.38;;;7.78;80.43
12215;BME280;6170;42.206;24.142;2022-12-15T07:39:29;98338.28;;;8.24;79.20
12215;BME280;6170;42.206;24.142;2022-12-15T07:41:56;98333.13;;;8.16;78.26
12215;BME280;6170;42.206;24.142;2022-12-15T07:44:23;98347.53;;;8.21;79.62
12215;BME280;6170;42.206;24.142;2022-12-15T07:46:49;98342.06;;;8.29;79.01
12215;BME280;6170;42.206;24.142;2022-12-15T07:49:17;98350.13;;;8.42;78.98
12215;BME280;6170;42.206;24.142;2022-12-15T07:51:46;98353.97;;;7.99;79.57
12215;BME280;6170;42.206;24.142;2022-12-15T07:54:13;98337.28;;;8.25;79.50
12215;BME280;6170;42.206;24.142;2022-12-15T07:56:41;98335.56;;;8.51;78.64
12215;BME280;6170;42.206;24.142;2022-12-15T07:59:08;98386.66;;;8.89;78.11
12215;BME280;6170;42.206;24.142;2022-12-15T08:01:35;98352.31;;;8.80;77.28
12215;BME280;6170;42.206;24.142;2022-12-15T08:04:02;98386.91;;;9.14;77.37
12215;BME280;6170;42.206;24.142;2022-12-15T08:06:29;98352.38;;;9.06;77.39
12215;BME280;6170;42.206;24.142;2022-12-15T08:08:58;98351.66;;;8.71;77.60
12215;BME280;6170;42.206;24.142;2022-12-15T08:11:24;98348.69;;;9.07;77.21
12215;BME280;6170;42.206;24.142;2022-12-15T08:13:51;98349.72;;;9.19;77.01
12215;BME280;6170;42.206;24.142;2022-12-15T08:16:18;98348.25;;;9.69;75.75
12215;BME280;6170;42.206;24.142;2022-12-15T08:18:45;98393.13;;;10.20;73.77
12215;BME280;6170;42.206;24.142;2022-12-15T08:21:13;98360.16;;;10.19;74.46
12215;BME280;6170;42.206;24.142;2022-12-15T08:23:40;98394.50;;;10.42;74.62
12215;BME280;6170;42.206;24.142;2022-12-15T08:26:10;98405.81;;;10.51;74.03
12215;BME280;6170;42.206;24.142;2022-12-15T08:28:39;98362.22;;;10.11;74.07
12215;BME280;6170;42.206;24.142;2022-12-15T08:31:07;98363.19;;;10.36;74.50
12215;BME280;6170;42.206;24.142;2022-12-15T08:33:35;98365.88;;;10.43;73.01
12215;BME280;6170;42.206;24.142;2022-12-15T08:36:04;98358.22;;;10.53;73.35
12215;BME280;6170;42.206;24.142;2022-12-15T08:38:32;98390.50;;;10.71;73.42
12215;BME280;6170;42.206;24.142;2022-12-15T08:41:05;98354.84;;;10.64;74.13
12215;BME280;6170;42.206;24.142;2022-12-15T08:43:35;98353.06;;;10.89;71.81
12215;BME280;6170;42.206;24.142;2022-12-15T08:46:02;98357.41;;;10.90;71.60
12215;BME280;6170;42.206;24.142;2022-12-15T08:48:29;98353.81;;;11.03;72.78
12215;BME280;6170;42.206;24.142;2022-12-15T08:50:56;98353.41;;;11.37;69.48
12215;BME280;6170;42.206;24.142;2022-12-15T08:53:24;98350.06;;;11.91;69.00
12215;BME280;6170;42.206;24.142;2022-12-15T08:55:51;98354.25;;;12.05;68.44
12215;BME280;6170;42.206;24.142;2022-12-15T08:58:18;98348.84;;;11.62;68.85
12215;BME280;6170;42.206;24.142;2022-12-15T09:00:46;98353.84;;;12.45;68.40
12215;BME280;6170;42.206;24.142;2022-12-15T09:03:13;98385.66;;;12.48;68.73
12215;BME280;6170;42.206;24.142;2022-12-15T09:05:40;98352.53;;;11.93;67.59
12215;BME280;6170;42.206;24.142;2022-12-15T09:08:07;98367.22;;;12.08;69.13
12215;BME280;6170;42.206;24.142;2022-12-15T09:10:34;98339.59;;;12.08;69.28
12215;BME280;6170;42.206;24.142;2022-12-15T09:13:06;98337.34;;;12.89;66.76
12215;BME280;6170;42.206;24.142;2022-12-15T09:15:33;98342.72;;;12.23;67.27
12215;BME280;6170;42.206;24.142;2022-12-15T09:18:01;98356.25;;;13.31;67.08
12215;BME280;6170;42.206;24.142;2022-12-15T09:20:28;98353.78;;;13.41;65.78
12215;BME280;6170;42.206;24.142;2022-12-15T09:22:56;98358.44;;;13.75;64.61
12215;BME280;6170;42.206;24.142;2022-12-15T09:25:23;98311.94;;;13.57;66.38
12215;BME280;6170;42.206;24.142;2022-12-15T09:27:50;98319.22;;;13.79;65.86
12215;BME280;6170;42.206;24.142;2022-12-15T09:30:17;98331.50;;;14.73;62.63
12215;BME280;6170;42.206;24.142;2022-12-15T09:32:44;98332.78;;;14.43;63.01
12215;BME280;6170;42.206;24.142;2022-12-15T09:35:13;98336.84;;;13.64;65.25
12215;BME280;6170;42.206;24.142;2022-12-15T09:37:41;98314.28;;;13.76;63.37
12215;BME280;6170;42.206;24.142;2022-12-15T09:40:11;98337.09;;;13.85;65.37
12215;BME280;6170;42.206;24.142;2022-12-15T09:42:39;98335.94;;;14.05;64.54
12215;BME280;6170;42.206;24.142;2022-12-15T09:45:12;98338.50;;;13.76;61.99
12215;BME280;6170;42.206;24.142;2022-12-15T09:47:44;98342.19;;;14.68;62.47
12215;BME280;6170;42.206;24.142;2022-12-15T09:50:22;98327.94;;;15.13;60.15
12215;BME280;6170;42.206;24.142;2022-12-15T09:52:52;98334.16;;;14.85;62.08
12215;BME280;6170;42.206;24.142;2022-12-15T09:55:22;98332.41;;;13.81;64.10
12215;BME280;6170;42.206;24.142;2022-12-15T09:57:52;98342.97;;;14.29;65.74
12215;BME280;6170;42.206;24.142;2022-12-15T10:00:21;98332.50;;;14.21;65.32
12215;BME280;6170;42.206;24.142;2022-12-15T10:06:05;98328.44;;;13.95;64.54
12215;BME280;6170;42.206;24.142;2022-12-15T10:08:34;98316.41;;;13.98;63.95
12215;BME280;6170;42.206;24.142;2022-12-15T10:11:10;98335.34;;;14.14;63.44
12215;BME280;6170;42.206;24.142;2022-12-15T10:13:44;98357.94;;;14.48;63.78
12215;BME280;6170;42.206;24.142;2022-12-15T10:16:20;98325.06;;;14.11;63.13
12215;BME280;6170;42.206;24.142;2022-12-15T10:18:59;98362.03;;;13.69;65.53
12215;BME280;6170;42.206;24.142;2022-12-15T10:21:30;98320.69;;;13.99;63.77
12215;BME280;6170;42.206;24.142;2022-12-15T10:24:01;98321.53;;;13.87;65.32
12215;BME280;6170;42.206;24.142;2022-12-15T10:26:34;98320.25;;;13.78;63.62
12215;BME280;6170;42.206;24.142;2022-12-15T10:29:08;98324.63;;;14.54;62.17
12215;BME280;6170;42.206;24.142;2022-12-15T10:31:47;98328.31;;;14.76;65.08
12215;BME280;6170;42.206;24.142;2022-12-15T10:34:23;98320.13;;;14.20;64.95
12215;BME280;6170;42.206;24.142;2022-12-15T10:36:53;98331.34;;;14.28;65.31
12215;BME280;6170;42.206;24.142;2022-12-15T10:39:21;98318.25;;;14.09;65.47
12215;BME280;6170;42.206;24.142;2022-12-15T10:42:09;98317.44;;;13.73;66.84
12215;BME280;6170;42.206;24.142;2022-12-15T10:44:38;98319.84;;;14.45;65.49
12215;BME280;6170;42.206;24.142;2022-12-15T10:47:10;98312.97;;;14.37;65.04
12215;BME280;6170;42.206;24.142;2022-12-15T10:49:37;98308.22;;;14.84;64.98
12215;BME280;6170;42.206;24.142;2022-12-15T10:52:15;98314.63;;;14.78;62.70
12215;BME280;6170;42.206;24.142;2022-12-15T10:54:46;98323.31;;;14.68;64.96
12215;BME280;6170;42.206;24.142;2022-12-15T10:57:16;98316.41;;;14.61;63.90
12215;BME280;6170;42.206;24.142;2022-12-15T10:59:43;98323.97;;;14.75;62.75
12215;BME280;6170;42.206;24.142;2022-12-15T11:02:37;98357.13;;;14.24;66.11
12215;BME280;6170;42.206;24.142;2022-12-15T11:05:15;98319.19;;;14.37;66.68
12215;BME280;6170;42.206;24.142;2022-12-15T11:07:46;98361.41;;;15.00;64.04
12215;BME280;6170;42.206;24.142;2022-12-15T11:10:18;98324.06;;;14.52;65.94
12215;BME280;6170;42.206;24.142;2022-12-15T11:12:54;98325.03;;;14.46;64.29
12215;BME280;6170;42.206;24.142;2022-12-15T11:15:42;98356.16;;;14.94;65.02
12215;BME280;6170;42.206;24.142;2022-12-15T11:18:29;98325.56;;;14.88;63.92
12215;BME280;6170;42.206;24.142;2022-12-15T11:21:01;98331.00;;;15.05;64.46
12215;BME280;6170;42.206;24.142;2022-12-15T11:23:44;98324.19;;;14.34;65.48
12215;BME280;6170;42.206;24.142;2022-12-15T11:26:15;98350.81;;;14.42;66.12
12215;BME280;6170;42.206;24.142;2022-12-15T11:28:51;98319.59;;;14.34;67.04
12215;BME280;6170;42.206;24.142;2022-12-15T11:31:24;98299.03;;;14.17;65.74
12215;BME280;6170;42.206;24.142;2022-12-15T11:33:53;98327.16;;;13.86;67.12
12215;BME280;6170;42.206;24.142;2022-12-15T11:36:34;98324.72;;;13.84;67.46
12215;BME280;6170;42.206;24.142;2022-12-15T11:39:12;98366.50;;;13.99;68.19
12215;BME280;6170;42.206;24.142;2022-12-15T11:41:51;98332.91;;;13.66;67.70
12215;BME280;6170;42.206;24.142;2022-12-15T11:44:24;98339.94;;;13.67;67.89
12215;BME280;6170;42.206;24.142;2022-12-15T11:47:01;98325.25;;;13.63;67.79
12215;BME280;6170;42.206;24.142;2022-12-15T11:49:52;98375.41;;;13.87;67.68
12215;BME280;6170;42.206;24.142;2022-12-15T11:52:51;98343.31;;;13.74;67.13
12215;BME280;6170;42.206;24.142;2022-12-15T11:55:29;98350.78;;;13.72;67.27
12215;BME280;6170;42.206;24.142;2022-12-15T12:00:59;98339.00;;;13.97;67.66
12215;BME280;6170;42.206;24.142;2022-12-15T12:03:36;98348.69;;;14.09;66.26
12215;BME280;6170;42.206;24.142;2022-12-15T12:06:09;98354.63;;;14.34;65.34
12215;BME280;6170;42.206;24.142;2022-12-15T12:08:52;98386.56;;;14.37;65.60
12215;BME280;6170;42.206;24.142;2022-12-15T12:11:27;98348.69;;;13.74;66.90
12215;BME280;6170;42.206;24.142;2022-12-15T12:14:10;98353.88;;;13.76;67.73
12215;BME280;6170;42.206;24.142;2022-12-15T12:16:46;98395.88;;;14.12;68.14
12215;BME280;6170;42.206;24.142;2022-12-15T12:19:18;98361.72;;;13.89;67.30
12215;BME280;6170;42.206;24.142;2022-12-15T12:21:48;98363.47;;;13.83;68.78
12215;BME280;6170;42.206;24.142;2022-12-15T12:24:22;98361.09;;;13.64;68.56
12215;BME280;6170;42.206;24.142;2022-12-15T12:26:55;98364.72;;;13.69;68.79
12215;BME280;6170;42.206;24.142;2022-12-15T12:29:29;98378.78;;;13.71;68.63
12215;BME280;6170;42.206;24.142;2022-12-15T12:32:03;98411.50;;;13.98;69.35
12215;BME280;6170;42.206;24.142;2022-12-15T12:34:38;98363.34;;;14.02;68.08
12215;BME280;6170;42.206;24.142;2022-12-15T12:37:15;98409.94;;;14.25;67.71
12215;BME280;6170;42.206;24.142;2022-12-15T12:39:46;98382.91;;;14.32;66.89
12215;BME280;6170;42.206;24.142;2022-12-15T12:42:18;98379.88;;;14.05;68.57
12215;BME280;6170;42.206;24.142;2022-12-15T12:44:47;98388.53;;;13.84;67.60
12215;BME280;6170;42.206;24.142;2022-12-15T12:47:19;98418.75;;;14.09;67.63
12215;BME280;6170;42.206;24.142;2022-12-15T12:49:51;98401.41;;;13.93;68.04
12215;BME280;6170;42.206;24.142;2022-12-15T12:52:23;98422.50;;;13.97;67.51
12215;BME280;6170;42.206;24.142;2022-12-15T12:54:56;98396.91;;;13.64;67.61
12215;BME280;6170;42.206;24.142;2022-12-15T12:57:38;98397.63;;;13.71;68.19
12215;BME280;6170;42.206;24.142;2022-12-15T13:00:17;98395.25;;;13.63;69.25
12215;BME280;6170;42.206;24.142;2022-12-15T13:02:54;98398.53;;;13.54;69.28
12215;BME280;6170;42.206;24.142;2022-12-15T13:05:27;98404.47;;;13.97;68.55
12215;BME280;6170;42.206;24.142;2022-12-15T13:08:28;98439.00;;;14.00;68.87
12215;BME280;6170;42.206;24.142;2022-12-15T13:11:53;98450.53;;;13.77;68.83
12215;BME280;6170;42.206;24.142;2022-12-15T13:17:14;98404.50;;;13.56;69.70
12215;BME280;6170;42.206;24.142;2022-12-15T13:22:46;98420.50;;;13.50;69.26
12215;BME280;6170;42.206;24.142;2022-12-15T13:25:52;98451.69;;;13.58;69.51
12215;BME280;6170;42.206;24.142;2022-12-15T13:28:40;98414.75;;;13.35;69.72
12215;BME280;6170;42.206;24.142;2022-12-15T13:31:26;98455.25;;;13.82;69.02
12215;BME280;6170;42.206;24.142;2022-12-15T13:34:00;98424.34;;;13.43;69.44
12215;BME280;6170;42.206;24.142;2022-12-15T13:36:46;98426.16;;;13.49;68.95
12215;BME280;6170;42.206;24.142;2022-12-15T13:42:30;98434.94;;;13.56;69.89
12215;BME280;6170;42.206;24.142;2022-12-15T13:48:12;98438.78;;;13.48;69.81
12215;BME280;6170;42.206;24.142;2022-12-15T13:50:47;98443.41;;;13.41;69.98
12215;BME280;6170;42.206;24.142;2022-12-15T13:53:20;98490.78;;;13.61;70.22
12215;BME280;6170;42.206;24.142;2022-12-15T13:55:57;98469.69;;;13.58;70.17
12215;BME280;6170;42.206;24.142;2022-12-15T13:58:27;98454.50;;;13.33;70.69
12215;BME280;6170;42.206;24.142;2022-12-15T14:00:57;98438.91;;;13.24;70.39